KSTJ/STJ METAR and TAF weather

Enter ICAO airport designator
Station Type Date Time Source
KSTJ METAR 2018/12/15 22:53 UTC NOAA

KSTJ 152253Z 00000KT 10SM CLR 08/M06 A3015 RMK AO2 SLP217 T00831061


Station Type Date Time Source
KSTJ Decoded METAR 2018/12/15 22:53 UTC NOAA

ROSECRANS MEMORIAL AIRPORT, MO, United States (KSTJ) 39-46N 94-55W 247M
Dec 15, 2018 - 05:53 PM EST / 2018.12.15 2253 UTC
Wind: Calm:0
Visibility: 10 mile(s):0
Sky conditions: clear
Temperature: 46.9 F (8.3 C)
Dew Point: 21.0 F (-6.1 C)
Relative Humidity: 35%
Pressure (altimeter): 30.15 in. Hg (1020 hPa)
ob: KSTJ 152253Z 00000KT 10SM CLR 08/M06 A3015 RMK AO2 SLP217 T00831061
cycle: 23

Station Type Date Time Source
KSTJ TAF 2018/12/15 18:22 UTC NOAA

TAF KSTJ 151720Z 1518/1618 VRB03KT P6SM SKC
FM161200 26005KT P6SM FEW250


Example: see airport list